Time;durP1;ratioP1;P1;durP2;ratioP2;P2;SDS_P1;SDS_P2;PMS_P1;PMS_P2;Temp;Humidity;BMP_temperature;BMP_pressure;BME280_temperature;BME280_humidity;BME280_pressure;Samples;Min_cycle;Max_cycle;Signal;HPM_P1;HPM_P2
2023/06/20 00:00:52;;;;;;;9.10;6.07;;;;;;;22.85;61.86;100833.06;4987530;28;20038;-73
2023/06/20 00:03:18;;;;;;;9.18;6.38;;;;;;;22.81;62.28;100834.56;4983622;28;20034;-72
2023/06/20 00:05:44;;;;;;;9.23;6.43;;;;;;;22.78;62.47;100826.31;4988601;28;20030;-73
2023/06/20 00:08:10;;;;;;;9.20;5.80;;;;;;;22.77;62.44;100827.34;4984952;28;20034;-73
2023/06/20 00:10:38;;;;;;;9.38;6.32;;;;;;;22.77;62.52;100825.50;4984695;28;20037;-73
2023/06/20 00:13:04;;;;;;;12.32;6.53;;;;;;;22.74;62.69;100828.63;4982059;28;20149;-73
2023/06/20 00:15:32;;;;;;;9.70;6.40;;;;;;;22.72;63.30;100828.84;4970785;28;20125;-73
2023/06/20 00:18:01;;;;;;;9.48;6.30;;;;;;;22.69;63.50;100829.31;4984569;28;20068;-73
2023/06/20 00:20:28;;;;;;;8.80;6.18;;;;;;;22.69;63.80;100824.03;4986664;28;20046;-74
2023/06/20 00:22:57;;;;;;;11.73;6.38;;;;;;;22.69;63.85;100817.94;4985616;28;20121;-73
2023/06/20 00:25:23;;;;;;;10.15;6.75;;;;;;;22.66;63.74;100824.53;4985384;28;20051;-74
2023/06/20 00:27:48;;;;;;;11.32;6.70;;;;;;;22.61;63.84;100819.13;4988208;28;20045;-74
2023/06/20 00:30:15;;;;;;;11.60;6.60;;;;;;;22.59;63.63;100828.34;5030059;28;20041;-74
2023/06/20 00:32:41;;;;;;;10.27;6.25;;;;;;;22.57;63.97;100814.56;5020390;28;20132;-73
2023/06/20 00:35:06;;;;;;;12.02;6.60;;;;;;;22.52;64.71;100821.34;4992608;28;20490;-74
2023/06/20 00:37:34;;;;;;;20.42;8.10;;;;;;;22.49;65.12;100813.06;4991100;28;20559;-73
2023/06/20 00:39:59;;;;;;;9.02;6.40;;;;;;;22.45;65.60;100818.06;4988786;28;20098;-74
2023/06/20 00:42:25;;;;;;;9.05;6.28;;;;;;;22.44;65.45;100818.28;5001336;28;20433;-73
2023/06/20 00:44:51;;;;;;;9.30;6.55;;;;;;;22.42;65.49;100818.50;4991543;28;20133;-74
2023/06/20 00:47:18;;;;;;;8.85;6.60;;;;;;;22.41;65.70;100816.88;4985480;28;20034;-73
2023/06/20 00:49:48;;;;;;;11.63;6.45;;;;;;;22.41;65.43;100816.09;5007277;28;20042;-73
2023/06/20 00:52:16;;;;;;;8.85;6.20;;;;;;;22.38;65.88;100821.84;4984142;28;20048;-73
2023/06/20 00:54:44;;;;;;;12.18;6.78;;;;;;;22.31;66.16;100825.41;5001908;28;20034;-73
2023/06/20 00:57:13;;;;;;;9.85;6.07;;;;;;;22.29;65.97;100824.06;5017643;28;20048;-73
2023/06/20 00:59:42;;;;;;;9.85;6.50;;;;;;;22.27;66.04;100821.63;5007618;28;20046;-73
2023/06/20 01:02:07;;;;;;;10.32;6.25;;;;;;;22.21;66.35;100822.56;4985576;28;20041;-74
2023/06/20 01:04:33;;;;;;;9.93;6.32;;;;;;;22.15;66.85;100821.66;4995751;28;20062;-73
2023/06/20 01:07:07;;;;;;;10.77;7.03;;;;;;;22.13;66.69;100810.50;4986652;28;20046;-73
2023/06/20 01:09:44;;;;;;;11.23;6.63;;;;;;;22.10;66.95;100803.03;4979531;28;20042;-73
2023/06/20 01:12:23;;;;;;;11.77;7.13;;;;;;;22.08;67.67;100804.31;4985484;28;20029;-73
2023/06/20 01:15:09;;;;;;;10.18;7.00;;;;;;;22.08;67.97;100804.31;5026208;28;20049;-73
2023/06/20 01:17:56;;;;;;;10.73;6.03;;;;;;;22.07;67.86;100810.63;5001522;28;20109;-73
2023/06/20 01:20:31;;;;;;;12.57;7.03;;;;;;;22.04;67.99;100811.06;5025065;28;20381;-73
2023/06/20 01:23:08;;;;;;;10.80;7.20;;;;;;;22.02;68.09;100816.63;5006193;28;20481;-73
2023/06/20 01:25:33;;;;;;;9.63;6.65;;;;;;;22.00;68.17;100815.22;4983647;28;20182;-73
2023/06/20 01:28:30;;;;;;;9.98;6.22;;;;;;;21.97;68.19;100814.66;4990944;28;20120;-73
2023/06/20 01:31:03;;;;;;;9.85;6.65;;;;;;;21.93;67.82;100807.44;4983364;28;20078;-73
2023/06/20 01:33:34;;;;;;;10.10;7.20;;;;;;;21.93;67.25;100808.22;4987025;28;20045;-73
2023/06/20 01:36:04;;;;;;;12.98;7.22;;;;;;;21.94;66.89;100806.38;4983219;28;20104;-73
2023/06/20 01:38:35;;;;;;;16.23;7.60;;;;;;;21.92;67.05;100809.25;4983515;28;20051;-73
2023/06/20 01:41:04;;;;;;;12.15;6.57;;;;;;;21.90;67.55;100815.81;4987872;28;20418;-73
2023/06/20 01:43:31;;;;;;;9.63;6.20;;;;;;;21.85;67.81;100807.78;4974726;28;20050;-73
2023/06/20 01:46:00;;;;;;;11.02;6.75;;;;;;;21.80;68.01;100818.25;5007633;28;20053;-73
2023/06/20 01:48:32;;;;;;;10.43;7.03;;;;;;;21.72;68.61;100817.53;4997495;28;20057;-73
2023/06/20 01:50:58;;;;;;;11.00;6.60;;;;;;;21.66;69.20;100807.91;4994890;28;20048;-73
2023/06/20 01:53:25;;;;;;;10.98;7.20;;;;;;;21.66;69.40;100815.00;5010782;28;20121;-72
2023/06/20 01:55:56;;;;;;;14.27;6.82;;;;;;;21.60;69.85;100819.34;4986669;28;20046;-73
2023/06/20 01:58:22;;;;;;;8.88;5.95;;;;;;;21.52;70.05;100815.22;5007913;28;20037;-73
2023/06/20 02:00:49;;;;;;;12.10;6.68;;;;;;;21.51;69.73;100820.72;5025728;28;20501;-73
2023/06/20 02:03:16;;;;;;;10.00;6.22;;;;;;;21.54;69.46;100813.16;4991021;28;20050;-73
2023/06/20 02:05:44;;;;;;;11.25;6.85;;;;;;;21.58;69.12;100811.66;4992778;28;20029;-73
2023/06/20 02:08:12;;;;;;;10.15;6.18;;;;;;;21.62;69.11;100812.00;4970941;28;20034;-73
2023/06/20 02:10:40;;;;;;;12.15;6.72;;;;;;;21.62;69.45;100817.28;5011135;28;20607;-73
2023/06/20 02:13:06;;;;;;;10.70;6.88;;;;;;;21.61;69.55;100817.53;4998377;28;20022;-74
2023/06/20 02:15:34;;;;;;;12.02;7.07;;;;;;;21.61;69.50;100812.28;5019411;28;20076;-73
2023/06/20 02:18:02;;;;;;;17.15;6.32;;;;;;;21.60;69.54;100810.66;5009609;28;20045;-73
2023/06/20 02:20:28;;;;;;;11.20;6.68;;;;;;;21.57;70.78;100812.72;5020741;28;20634;-73
2023/06/20 02:22:55;;;;;;;12.68;7.28;;;;;;;21.54;71.30;100813.16;4995050;28;20064;-73
2023/06/20 02:25:26;;;;;;;12.18;7.03;;;;;;;21.51;71.75;100813.63;5022657;28;20123;-73
2023/06/20 02:27:54;;;;;;;11.75;6.68;;;;;;;21.48;72.00;100814.09;5017385;28;20060;-74
2023/06/20 02:30:25;;;;;;;10.85;6.72;;;;;;;21.47;72.25;100809.81;5021437;28;20054;-73
2023/06/20 02:32:53;;;;;;;11.77;7.05;;;;;;;21.47;72.79;100804.56;5016044;28;20264;-73
2023/06/20 02:35:21;;;;;;;12.45;7.00;;;;;;;21.45;73.15;100803.97;4997639;28;20042;-73
2023/06/20 02:37:48;;;;;;;10.32;6.82;;;;;;;21.44;73.39;100807.66;4992629;28;20779;-73
2023/06/20 02:40:14;;;;;;;9.88;6.90;;;;;;;21.44;73.57;100815.56;5006809;28;20061;-73
2023/06/20 02:42:39;;;;;;;12.50;7.30;;;;;;;21.43;74.50;100799.94;5009454;28;20029;-73
2023/06/20 02:45:05;;;;;;;10.00;6.80;;;;;;;21.40;74.96;100803.84;5014146;28;20053;-73
2023/06/20 02:48:02;;;;;;;11.13;7.80;;;;;;;21.36;75.42;100800.84;5026065;28;20127;-73
2023/06/20 02:50:53;;;;;;;12.18;7.47;;;;;;;21.36;75.52;100800.03;4997232;28;20041;-73
2023/06/20 02:53:31;;;;;;;10.77;7.38;;;;;;;21.34;75.08;100802.94;4991265;28;20037;-73
2023/06/20 02:56:01;;;;;;;12.68;7.05;;;;;;;21.32;75.26;100805.00;4990981;28;20133;-73
2023/06/20 02:58:31;;;;;;;11.10;7.35;;;;;;;21.29;75.24;100810.69;4970069;28;20073;-73
2023/06/20 03:00:59;;;;;;;11.93;6.72;;;;;;;21.26;75.41;100813.00;5014807;28;20037;-73
2023/06/20 03:03:29;;;;;;;10.57;7.00;;;;;;;21.23;75.69;100819.53;5002305;28;20394;-73
2023/06/20 03:05:58;;;;;;;12.32;7.20;;;;;;;21.18;76.02;100817.56;4989309;28;20057;-73
2023/06/20 03:08:27;;;;;;;13.00;6.97;;;;;;;21.15;75.88;100814.56;5000902;28;20038;-73
2023/06/20 03:10:54;;;;;;;13.68;8.10;;;;;;;21.10;76.14;100817.09;4988531;28;20026;-73
2023/06/20 03:13:21;;;;;;;10.43;6.93;;;;;;;21.06;76.57;100826.44;4988074;28;20201;-73
2023/06/20 03:15:50;;;;;;;10.15;6.45;;;;;;;21.06;76.43;100826.44;5020724;28;20018;-73
2023/06/20 03:18:20;;;;;;;9.00;6.57;;;;;;;21.07;76.45;100833.34;5019997;28;20049;-73
2023/06/20 03:20:48;;;;;;;10.02;6.63;;;;;;;21.07;77.23;100830.72;5009800;28;20550;-73
2023/06/20 03:23:15;;;;;;;11.20;6.65;;;;;;;21.07;77.92;100833.34;5004731;28;20103;-73
2023/06/20 03:25:41;;;;;;;13.45;7.25;;;;;;;20.99;79.05;100835.25;5007572;28;20035;-73
2023/06/20 03:28:09;;;;;;;9.98;6.10;;;;;;;20.97;79.96;100836.53;5021204;28;20037;-73
2023/06/20 03:30:35;;;;;;;8.95;6.10;;;;;;;20.96;79.98;100833.09;5025969;28;20121;-73
2023/06/20 03:33:02;;;;;;;8.38;6.07;;;;;;;20.97;80.20;100837.31;5041524;28;20121;-73
2023/06/20 03:35:28;;;;;;;9.50;5.65;;;;;;;20.94;80.02;100836.97;5020505;28;20409;-73
2023/06/20 03:37:54;;;;;;;10.60;5.68;;;;;;;20.94;80.90;100844.88;5008611;28;20477;-72
2023/06/20 03:40:20;;;;;;;6.93;4.53;;;;;;;20.89;81.93;100842.91;5006992;28;20072;-72
2023/06/20 03:42:49;;;;;;;8.60;4.90;;;;;;;20.88;83.39;100835.22;4995076;28;21721;-73
2023/06/20 03:45:15;;;;;;;6.82;4.90;;;;;;;20.92;82.94;100834.53;5017708;28;20046;-71
2023/06/20 03:47:44;;;;;;;11.05;5.45;;;;;;;20.84;83.08;100828.81;5008578;28;20079;-73
2023/06/20 03:50:10;;;;;;;7.10;4.80;;;;;;;20.83;83.53;100835.09;5004890;28;20046;-73
2023/06/20 03:52:37;;;;;;;8.68;5.80;;;;;;;20.84;84.47;100832.22;5008536;28;20041;-73
2023/06/20 03:55:03;;;;;;;6.60;4.30;;;;;;;20.78;84.90;100831.28;5026360;28;20046;-73
2023/06/20 03:57:28;;;;;;;9.02;4.88;;;;;;;20.76;86.60;100827.28;5011560;28;20097;-72
2023/06/20 03:59:55;;;;;;;7.43;4.95;;;;;;;20.77;85.82;100827.03;5008922;28;20461;-73
2023/06/20 04:02:20;;;;;;;9.13;4.70;;;;;;;20.84;85.75;100813.78;5009204;28;20248;-73
2023/06/20 04:04:49;;;;;;;6.97;4.78;;;;;;;20.75;86.05;100820.41;5004931;28;20463;-73
2023/06/20 04:07:18;;;;;;;7.70;4.63;;;;;;;20.71;86.27;100813.97;5007450;28;20124;-72
2023/06/20 04:09:50;;;;;;;8.13;4.15;;;;;;;20.73;86.35;100825.09;5038465;28;20044;-73
2023/06/20 04:12:15;;;;;;;5.53;4.07;;;;;;;20.72;86.84;100829.56;5004713;28;20091;-73
2023/06/20 04:14:41;;;;;;;5.45;4.13;;;;;;;20.72;87.08;100836.63;5010964;28;20057;-73
2023/06/20 04:17:06;;;;;;;6.13;4.28;;;;;;;20.71;87.86;100837.69;5003973;28;20030;-73
2023/06/20 04:19:33;;;;;;;7.57;4.15;;;;;;;20.71;88.07;100837.69;5008317;28;20046;-72
2023/06/20 04:21:59;;;;;;;7.88;4.68;;;;;;;20.73;87.79;100840.91;5006221;28;20073;-73
2023/06/20 04:24:31;;;;;;;6.43;4.28;;;;;;;20.69;87.45;100835.25;4992874;28;20096;-73
2023/06/20 04:26:57;;;;;;;6.35;3.78;;;;;;;20.68;87.14;100838.13;5007207;28;20034;-73
2023/06/20 04:29:29;;;;;;;9.63;3.83;;;;;;;20.66;86.70;100850.69;4997870;28;20054;-73
2023/06/20 04:31:55;;;;;;;5.50;4.10;;;;;;;20.64;86.83;100850.91;4985008;28;20100;-73
2023/06/20 04:34:23;;;;;;;5.22;3.80;;;;;;;20.64;86.48;100844.84;5008993;28;20618;-73
2023/06/20 04:36:49;;;;;;;4.88;3.40;;;;;;;20.60;86.68;100844.50;5005445;28;20034;-73
2023/06/20 04:39:15;;;;;;;6.15;3.90;;;;;;;20.62;86.40;100839.81;5017891;28;20088;-73
2023/06/20 04:41:41;;;;;;;7.45;3.55;;;;;;;20.65;85.82;100838.56;4989593;28;20030;-73
2023/06/20 04:44:06;;;;;;;6.97;3.75;;;;;;;20.69;85.03;100845.78;4996143;28;20465;-73
2023/06/20 04:46:32;;;;;;;5.40;3.38;;;;;;;20.72;84.88;100848.00;5006091;28;20031;-73
2023/06/20 04:48:58;;;;;;;6.50;3.85;;;;;;;20.75;84.68;100841.47;5024149;28;20084;-73
2023/06/20 04:51:23;;;;;;;6.70;3.70;;;;;;;20.78;84.66;100841.84;5001494;28;20626;-73
2023/06/20 04:53:49;;;;;;;13.65;4.07;;;;;;;20.79;84.15;100837.38;5003881;28;20042;-73
2023/06/20 04:56:15;;;;;;;5.35;3.67;;;;;;;20.86;83.54;100840.72;4987738;28;20049;-74
2023/06/20 04:58:45;;;;;;;8.82;4.25;;;;;;;20.86;83.61;100838.09;4990828;28;20288;-74
2023/06/20 05:01:10;;;;;;;7.60;3.50;;;;;;;20.86;83.20;100842.56;4992187;28;20052;-73
2023/06/20 05:03:36;;;;;;;6.75;4.05;;;;;;;20.87;83.28;100844.16;4973141;28;20760;-73
2023/06/20 05:06:01;;;;;;;7.22;4.03;;;;;;;20.92;82.70;100842.44;4987925;28;20033;-74
2023/06/20 05:08:30;;;;;;;6.97;3.25;;;;;;;20.92;82.55;100836.38;4991873;28;20050;-73
2023/06/20 05:10:55;;;;;;;4.88;2.88;;;;;;;20.89;82.83;100826.28;4985409;28;20034;-73
2023/06/20 05:13:21;;;;;;;8.70;3.13;;;;;;;20.94;83.14;100835.13;4995060;28;20029;-73
2023/06/20 05:15:46;;;;;;;6.00;3.25;;;;;;;20.94;83.01;100829.06;5009691;28;20033;-73
2023/06/20 05:18:12;;;;;;;5.10;3.45;;;;;;;20.99;82.97;100826.56;5022121;28;20440;-73
2023/06/20 05:20:37;;;;;;;5.65;3.60;;;;;;;20.97;83.69;100825.97;5009037;28;20060;-73
2023/06/20 05:23:03;;;;;;;4.78;3.22;;;;;;;21.04;83.21;100831.16;5007474;28;20033;-73
2023/06/20 05:25:28;;;;;;;7.65;3.35;;;;;;;21.06;83.75;100827.28;4988977;28;20035;-73
2023/06/20 05:27:55;;;;;;;5.72;3.08;;;;;;;21.10;83.13;100825.78;4991467;28;20033;-74
2023/06/20 05:30:20;;;;;;;7.78;3.70;;;;;;;21.31;83.00;100829.72;4992041;28;20037;-73
2023/06/20 05:32:46;;;;;;;7.28;3.75;;;;;;;21.29;83.20;100829.16;4990452;28;20057;-73
2023/06/20 05:35:11;;;;;;;4.40;3.28;;;;;;;21.37;83.04;100828.03;5018528;28;20038;-73
2023/06/20 05:37:37;;;;;;;5.43;3.70;;;;;;;21.48;82.89;100829.13;5002342;28;20405;-72
2023/06/20 05:40:05;;;;;;;6.78;3.85;;;;;;;21.63;81.50;100832.09;5009453;28;20033;-72
2023/06/20 05:42:32;;;;;;;7.65;3.80;;;;;;;21.54;81.86;100833.47;5007298;28;20025;-72
2023/06/20 05:44:58;;;;;;;4.50;3.42;;;;;;;21.48;81.83;100832.53;5005736;28;20755;-72
2023/06/20 05:47:23;;;;;;;9.70;4.07;;;;;;;21.54;82.32;100828.19;5007523;28;20022;-72
2023/06/20 05:49:49;;;;;;;5.25;3.13;;;;;;;21.69;81.75;100831.19;5008006;28;20038;-72
2023/06/20 05:52:15;;;;;;;7.00;3.25;;;;;;;21.82;81.74;100838.06;5004178;28;20041;-71
2023/06/20 05:54:43;;;;;;;5.82;3.38;;;;;;;21.91;81.20;100835.91;4996408;28;20042;-73
2023/06/20 05:57:09;;;;;;;6.50;3.88;;;;;;;22.07;81.20;100831.75;5003848;28;20468;-71
2023/06/20 05:59:34;;;;;;;4.88;3.17;;;;;;;22.38;78.76;100842.97;4985456;28;20046;-71
2023/06/20 06:02:00;;;;;;;7.53;3.40;;;;;;;22.70;77.88;100843.34;4988514;28;20038;-72
2023/06/20 06:04:25;;;;;;;5.25;3.25;;;;;;;22.69;77.13;100841.72;4983926;28;20069;-72
2023/06/20 06:06:51;;;;;;;4.68;3.38;;;;;;;22.60;77.10;100849.22;4986649;28;20030;-72
2023/06/20 06:09:17;;;;;;;4.95;3.22;;;;;;;22.50;77.36;100844.53;4985090;28;20050;-72
2023/06/20 06:11:43;;;;;;;7.13;3.80;;;;;;;22.66;77.07;100853.59;4985091;28;20109;-72
2023/06/20 06:14:08;;;;;;;5.68;3.22;;;;;;;22.72;76.29;100850.00;4980621;28;20054;-71
2023/06/20 06:16:34;;;;;;;3.92;2.83;;;;;;;22.79;75.72;100852.47;4972886;28;20038;-72
2023/06/20 06:19:00;;;;;;;9.05;3.25;;;;;;;22.60;77.47;100851.06;4982540;28;20046;-73
2023/06/20 06:21:26;;;;;;;5.22;3.20;;;;;;;22.59;77.13;100842.34;4985857;28;20049;-72
2023/06/20 06:23:53;;;;;;;8.77;3.53;;;;;;;22.93;76.41;100847.72;4981353;28;20124;-72
2023/06/20 06:26:18;;;;;;;4.97;3.20;;;;;;;23.28;75.05;100836.19;4987455;28;20104;-72
2023/06/20 06:28:43;;;;;;;7.75;3.13;;;;;;;23.66;73.84;100837.31;4987920;28;20038;-72
2023/06/20 06:31:13;;;;;;;7.38;3.05;;;;;;;24.01;72.01;100834.38;4983763;28;20485;-73
2023/06/20 06:33:40;;;;;;;7.18;3.20;;;;;;;24.12;71.77;100843.28;5017594;28;20050;-71
2023/06/20 06:36:08;;;;;;;4.03;2.30;;;;;;;24.19;71.77;100835.94;4984178;28;20034;-72
2023/06/20 06:38:33;;;;;;;7.40;3.67;;;;;;;24.53;70.71;100829.75;4988352;28;20133;-72
2023/06/20 06:40:59;;;;;;;8.82;3.60;;;;;;;24.80;70.08;100821.81;5006600;28;20112;-73
2023/06/20 06:43:25;;;;;;;9.40;3.63;;;;;;;25.18;68.25;100825.31;5032864;28;20054;-72
2023/06/20 06:45:51;;;;;;;7.07;4.45;;;;;;;25.46;68.99;100824.25;4991946;28;20043;-72
2023/06/20 06:48:20;;;;;;;5.53;3.92;;;;;;;25.14;69.68;100829.53;4990423;28;20041;-72
2023/06/20 06:50:46;;;;;;;4.40;3.58;;;;;;;25.17;70.06;100826.41;4987293;28;20034;-72
2023/06/20 06:53:12;;;;;;;10.15;3.30;;;;;;;25.61;68.74;100828.84;5015898;28;20034;-72
2023/06/20 06:55:37;;;;;;;5.65;4.15;;;;;;;25.70;68.09;100829.97;4983288;28;20549;-72
2023/06/20 06:58:03;;;;;;;6.00;3.72;;;;;;;25.99;67.08;100833.09;4997576;28;20664;-72
2023/06/20 07:00:29;;;;;;;7.57;3.70;;;;;;;26.34;65.84;100828.19;5005564;28;20026;-72
2023/06/20 07:02:54;;;;;;;7.78;3.53;;;;;;;26.65;64.27;100818.44;4986414;28;20042;-73
2023/06/20 07:05:20;;;;;;;10.50;5.07;;;;;;;26.60;63.60;100829.88;5004203;28;20787;-72
2023/06/20 07:07:45;;;;;;;7.28;3.90;;;;;;;26.74;64.42;100827.50;5004820;28;20042;-73
2023/06/20 07:10:11;;;;;;;6.50;4.07;;;;;;;27.08;63.36;100827.00;5002251;28;20058;-73
2023/06/20 07:12:36;;;;;;;6.55;4.25;;;;;;;26.83;63.33;100832.34;4971286;28;20034;-73
2023/06/20 07:15:02;;;;;;;7.47;4.38;;;;;;;26.90;63.33;100831.00;4986187;28;20088;-73
2023/06/20 07:17:28;;;;;;;8.00;4.38;;;;;;;27.35;61.86;100824.13;4985257;28;20036;-72
2023/06/20 07:19:53;;;;;;;7.10;4.70;;;;;;;27.58;61.20;100822.75;5015538;28;20831;-72
2023/06/20 07:22:19;;;;;;;9.20;4.47;;;;;;;27.86;60.85;100820.56;4983696;28;20061;-73
2023/06/20 07:24:45;;;;;;;5.93;4.28;;;;;;;27.95;59.61;100821.63;5000671;28;20097;-73
2023/06/20 07:27:10;;;;;;;6.15;4.15;;;;;;;27.89;59.93;100821.91;4986412;28;20125;-73
2023/06/20 07:29:36;;;;;;;5.45;4.15;;;;;;;27.65;60.10;100819.81;5014679;28;20042;-73
2023/06/20 07:32:05;;;;;;;7.72;4.38;;;;;;;27.42;61.64;100823.03;4988238;28;20030;-73
2023/06/20 07:34:30;;;;;;;6.32;3.97;;;;;;;27.81;60.09;100817.91;4987892;28;20050;-73
2023/06/20 07:36:56;;;;;;;7.80;3.72;;;;;;;28.39;59.05;100803.28;4990848;28;20146;-72
2023/06/20 07:39:21;;;;;;;7.65;4.40;;;;;;;28.47;57.96;100790.19;4982874;28;20046;-73
2023/06/20 07:41:50;;;;;;;8.20;3.97;;;;;;;28.53;56.69;100789.09;4987174;28;20050;-73
2023/06/20 07:44:18;;;;;;;7.25;4.45;;;;;;;28.61;57.14;100789.59;4989403;28;20050;-73
2023/06/20 07:46:44;;;;;;;4.85;3.45;;;;;;;28.82;56.63;100782.22;4984702;28;20096;-72
2023/06/20 07:49:09;;;;;;;7.20;3.65;;;;;;;28.88;53.87;100787.25;4988476;28;20061;-72
2023/06/20 07:51:36;;;;;;;5.35;3.67;;;;;;;28.66;54.96;100785.00;4987366;28;20034;-72
2023/06/20 07:54:02;;;;;;;8.65;3.63;;;;;;;28.70;54.82;100783.38;4991938;28;20096;-73
2023/06/20 07:56:28;;;;;;;6.00;3.97;;;;;;;28.83;54.31;100781.97;4987102;28;20062;-72
2023/06/20 07:58:53;;;;;;;5.32;3.63;;;;;;;28.75;54.75;100779.91;4989840;28;20092;-74
2023/06/20 08:01:19;;;;;;;7.40;4.68;;;;;;;28.37;54.94;100790.25;4991501;28;20092;-73
2023/06/20 08:03:44;;;;;;;6.60;4.43;;;;;;;27.71;56.29;100781.44;4995345;28;20050;-73
2023/06/20 08:06:10;;;;;;;6.90;4.30;;;;;;;26.84;58.77;100786.84;4987247;28;20033;-72
2023/06/20 08:08:36;;;;;;;5.38;3.72;;;;;;;27.14;59.37;100780.75;5003432;28;20046;-73
2023/06/20 08:11:03;;;;;;;5.43;3.78;;;;;;;28.03;56.30;100774.97;4985074;28;20048;-73
2023/06/20 08:13:29;;;;;;;8.20;4.40;;;;;;;27.84;56.61;100768.59;4988232;28;20050;-74
2023/06/20 08:15:54;;;;;;;6.63;4.18;;;;;;;28.06;55.40;100773.63;4988162;28;20477;-73
2023/06/20 08:18:20;;;;;;;6.38;3.72;;;;;;;28.46;54.13;100769.94;4988734;28;20489;-73
2023/06/20 08:20:47;;;;;;;7.30;3.90;;;;;;;28.92;52.46;100769.63;4985096;28;20596;-73
2023/06/20 08:23:13;;;;;;;7.53;3.85;;;;;;;28.79;51.51;100780.13;4985377;28;20033;-74
2023/06/20 08:25:39;;;;;;;8.63;4.65;;;;;;;29.10;51.54;100773.47;5002630;28;20049;-73
2023/06/20 08:28:04;;;;;;;4.47;3.85;;;;;;;29.16;51.52;100768.09;5016664;28;20047;-73
2023/06/20 08:30:30;;;;;;;5.15;3.60;;;;;;;29.31;50.91;100774.09;4984157;28;20047;-73
2023/06/20 08:32:55;;;;;;;3.92;3.20;;;;;;;28.92;51.20;100771.50;4986425;28;20133;-73
2023/06/20 08:35:20;;;;;;;6.75;3.67;;;;;;;28.97;52.21;100775.97;4988493;28;20046;-73
2023/06/20 08:37:46;;;;;;;6.75;4.20;;;;;;;29.29;51.74;100780.78;4986753;28;20030;-73
2023/06/20 08:40:14;;;;;;;5.18;3.22;;;;;;;29.61;52.09;100772.19;4987537;28;20062;-73
2023/06/20 08:42:43;;;;;;;8.48;4.95;;;;;;;29.98;50.88;100786.72;4986279;28;20030;-73
2023/06/20 08:45:09;;;;;;;5.45;3.67;;;;;;;30.08;50.46;100781.25;4985801;28;20409;-72
2023/06/20 08:47:34;;;;;;;6.70;3.97;;;;;;;30.02;50.06;100776.25;4968195;28;20046;-72
2023/06/20 08:50:00;;;;;;;6.70;3.58;;;;;;;30.35;48.59;100782.53;5002992;28;20042;-74
2023/06/20 08:52:33;;;;;;;9.13;4.25;;;;;;;29.91;48.87;100778.25;5008252;28;20033;-73
2023/06/20 08:54:59;;;;;;;4.38;3.53;;;;;;;30.31;48.04;100769.97;5006312;28;20133;-74
2023/06/20 08:57:25;;;;;;;5.03;3.83;;;;;;;30.49;48.45;100766.53;5020164;28;20044;-73
2023/06/20 08:59:52;;;;;;;4.50;3.72;;;;;;;31.20;47.02;100761.91;5008547;28;20041;-72
2023/06/20 09:02:18;;;;;;;7.50;3.78;;;;;;;31.53;44.88;100761.88;4987344;28;20458;-76
2023/06/20 09:04:43;;;;;;;8.85;4.15;;;;;;;31.33;45.08;100764.91;4993329;28;20065;-73
2023/06/20 09:07:17;;;;;;;9.07;3.90;;;;;;;30.82;46.48;100770.03;5007632;28;20610;-74
2023/06/20 09:09:43;;;;;;;10.55;4.10;;;;;;;31.31;45.75;100770.56;5003404;28;20049;-74
2023/06/20 09:12:09;;;;;;;8.23;4.65;;;;;;;31.04;46.28;100768.63;5004899;28;20029;-73
2023/06/20 09:14:34;;;;;;;6.63;4.00;;;;;;;31.12;45.25;100770.63;5005845;28;20045;-75
2023/06/20 09:17:05;;;;;;;5.70;3.90;;;;;;;31.06;45.39;100766.44;5007933;28;20038;-74
2023/06/20 09:19:42;;;;;;;5.97;4.45;;;;;;;31.15;46.74;100772.69;5005087;28;20065;-73
2023/06/20 09:22:10;;;;;;;9.50;4.50;;;;;;;31.24;45.47;100778.19;5018349;28;20073;-73
2023/06/20 09:24:43;;;;;;;8.00;3.72;;;;;;;31.55;46.03;100778.44;5004310;28;20058;-74
2023/06/20 09:27:08;;;;;;;;;;;;;;;31.03;45.21;100772.41;5005839;28;20040;-74
2023/06/20 09:29:48;;;;;;;8.38;4.03;;;;;;;31.32;45.59;100772.13;5019219;28;19917;-73
2023/06/20 09:32:21;;;;;;;6.75;4.50;;;;;;;31.05;45.43;100776.34;5035579;28;20042;-73
2023/06/20 09:34:47;;;;;;;8.60;4.40;;;;;;;31.27;44.87;100779.47;5002680;28;20124;-74
2023/06/20 09:37:15;;;;;;;6.10;4.10;;;;;;;31.85;43.65;100770.84;5004853;28;20038;-75
2023/06/20 09:39:41;;;;;;;7.72;4.03;;;;;;;31.87;44.10;100767.88;5006958;28;20133;-75
2023/06/20 09:42:11;;;;;;;7.28;4.22;;;;;;;32.03;44.08;100777.22;4992268;28;20037;-74
2023/06/20 09:44:37;;;;;;;6.28;4.00;;;;;;;31.85;44.11;100778.09;5011100;28;20624;-74
2023/06/20 09:47:03;;;;;;;7.38;3.42;;;;;;;32.40;42.82;100772.66;4991470;28;20042;-75
2023/06/20 09:49:30;;;;;;;5.13;3.45;;;;;;;31.87;41.70;100771.34;5004686;28;20129;-74
2023/06/20 09:52:03;;;;;;;7.57;4.18;;;;;;;31.62;42.65;100761.94;5011068;28;20435;-74
2023/06/20 09:54:43;;;;;;;5.15;3.30;;;;;;;31.26;43.36;100769.84;5041878;28;20072;-75
2023/06/20 09:57:13;;;;;;;4.15;3.10;;;;;;;31.37;43.92;100752.50;5012046;28;20057;-74
2023/06/20 09:59:41;;;;;;;6.60;3.47;;;;;;;31.90;43.36;100752.00;5010809;28;20049;-73
2023/06/20 10:02:08;;;;;;;5.70;3.25;;;;;;;31.34;41.89;100761.13;5012947;28;20037;-75
2023/06/20 10:04:42;;;;;;;4.10;3.38;;;;;;;31.30;42.14;100770.84;5007808;28;20046;-74
2023/06/20 10:07:11;;;;;;;9.95;5.53;;;;;;;31.61;41.75;100763.06;5010640;28;20117;-74
2023/06/20 10:09:37;;;;;;;4.75;3.00;;;;;;;31.93;41.60;100755.94;4996557;28;20114;-73
2023/06/20 10:12:04;;;;;;;3.90;3.00;;;;;;;32.37;41.63;100759.84;4989985;28;20113;-73
2023/06/20 10:14:30;;;;;;;5.70;3.40;;;;;;;32.53;41.27;100757.56;5005395;28;20120;-73
2023/06/20 10:17:04;;;;;;;6.57;3.20;;;;;;;32.74;40.51;100753.34;5023093;28;20033;-73
2023/06/20 10:19:45;;;;;;;30.17;4.43;;;;;;;32.72;40.23;100750.16;4984379;28;22845;-75
2023/06/20 10:22:10;;;;;;;7.55;3.65;;;;;;;32.53;41.22;100747.66;4992553;28;20087;-74
2023/06/20 10:24:39;;;;;;;7.30;3.15;;;;;;;32.42;41.51;100740.94;4990546;28;20049;-73
2023/06/20 10:27:08;;;;;;;7.78;3.70;;;;;;;32.57;41.10;100742.50;4994346;28;20690;-74
2023/06/20 10:29:40;;;;;;;6.15;3.47;;;;;;;32.89;40.42;100727.19;5004656;28;20052;-74
2023/06/20 10:32:12;;;;;;;5.10;3.65;;;;;;;32.50;40.35;100734.06;5028380;28;20536;-74
2023/06/20 10:34:39;;;;;;;7.88;3.63;;;;;;;32.59;41.16;100735.72;4993091;28;20043;-73
2023/06/20 10:37:20;;;;;;;5.18;4.03;;;;;;;32.82;40.48;100724.16;5011494;28;20033;-74
2023/06/20 10:39:57;;;;;;;5.95;3.50;;;;;;;32.79;39.78;100730.94;5011697;28;20043;-73
2023/06/20 10:42:42;;;;;;;4.43;3.20;;;;;;;32.53;40.76;100723.50;5027158;28;20105;-73
2023/06/20 10:45:25;;;;;;;4.68;3.38;;;;;;;32.50;40.80;100723.31;5009292;28;20050;-73
2023/06/20 10:47:54;;;;;;;4.43;3.35;;;;;;;32.06;41.26;100712.28;5004718;28;20022;-73
2023/06/20 10:50:20;;;;;;;4.10;3.28;;;;;;;31.82;41.75;100710.59;5011655;28;20091;-73
2023/06/20 10:52:46;;;;;;;4.38;3.58;;;;;;;31.73;42.59;100706.28;5013867;28;20092;-74
2023/06/20 10:55:26;;;;;;;7.70;4.30;;;;;;;31.81;42.59;100702.88;5023693;28;20045;-74
2023/06/20 10:57:52;;;;;;;6.15;3.70;;;;;;;31.98;43.12;100700.34;5006661;28;20034;-74
2023/06/20 11:00:21;;;;;;;5.68;4.22;;;;;;;32.03;43.44;100698.69;5002321;28;20159;-75
2023/06/20 11:02:54;;;;;;;6.50;3.50;;;;;;;32.44;42.43;100695.00;5019660;28;20083;-76
2023/06/20 11:05:26;;;;;;;5.50;3.60;;;;;;;33.02;41.50;100691.41;4990765;28;20049;-73
2023/06/20 11:07:58;;;;;;;6.20;3.00;;;;;;;33.28;40.54;100704.94;5021270;28;20432;-75
2023/06/20 11:10:32;;;;;;;6.03;2.95;;;;;;;33.45;39.23;100703.41;5001239;28;20140;-75
2023/06/20 11:12:59;;;;;;;3.88;2.90;;;;;;;33.54;39.09;100702.31;4992223;28;20647;-75
2023/06/20 11:15:32;;;;;;;3.83;2.78;;;;;;;33.23;38.94;100702.41;4990498;28;20046;-74
2023/06/20 11:18:01;;;;;;;12.18;2.90;;;;;;;32.67;39.60;100693.94;5044381;28;20044;-75
2023/06/20 11:20:27;;;;;;;4.95;3.28;;;;;;;32.50;40.26;100697.28;5023661;28;20122;-75
2023/06/20 11:22:55;;;;;;;6.18;3.78;;;;;;;32.68;41.19;100695.53;5007863;28;20101;-74
2023/06/20 11:25:22;;;;;;;4.47;3.45;;;;;;;33.02;39.92;100696.78;4992984;28;20050;-75
2023/06/20 11:27:48;;;;;;;4.60;3.60;;;;;;;32.85;39.91;100700.19;4985690;28;20057;-73